createdAt,value
2019-02-25T07:56:49.919Z,0.12
2019-02-25T07:58:50.074Z,0.0
2019-02-25T08:00:50.347Z,0.0
2019-02-25T08:02:50.528Z,0.1
2019-02-25T08:04:50.026Z,0.1
2019-02-25T08:06:50.256Z,0.1
2019-02-25T08:08:50.443Z,0.2
2019-02-25T08:10:50.703Z,0.4
2019-02-25T08:12:50.808Z,0.4
2019-02-25T08:14:50.047Z,0.5
2019-02-25T08:16:49.964Z,0.5
2019-02-25T08:18:50.474Z,0.7
2019-02-25T08:20:50.745Z,0.9
2019-02-25T08:22:50.563Z,0.9
2019-02-25T08:24:49.935Z,0.9
2019-02-25T08:26:50.292Z,0.9
2019-02-25T08:28:50.269Z,1.1
2019-02-25T08:30:50.426Z,1.2
2019-02-25T08:32:50.546Z,1.4
2019-02-25T08:34:50.153Z,1.4
2019-02-25T08:36:50.124Z,1.4
2019-02-25T08:38:49.898Z,1.6
2019-02-25T08:40:50.134Z,1.7
2019-02-25T08:42:50.092Z,1.8
2019-02-25T08:44:50.335Z,1.8
2019-02-25T08:46:50.674Z,1.8
2019-02-25T08:48:50.831Z,2.0
2019-02-25T08:50:50.009Z,2.1
2019-02-25T08:52:50.210Z,2.1
2019-02-25T08:54:50.350Z,2.2
2019-02-25T08:56:50.699Z,2.3
2019-02-25T08:58:50.019Z,2.4
2019-02-25T09:00:50.236Z,2.5
2019-02-25T09:02:50.506Z,2.5
2019-02-25T09:04:50.380Z,2.7
2019-02-25T09:06:50.703Z,2.7
2019-02-25T09:08:49.941Z,2.9
2019-02-25T09:10:50.044Z,2.9
2019-02-25T09:12:50.348Z,2.9
2019-02-25T09:14:50.532Z,3.1
2019-02-25T09:16:49.877Z,3.2
2019-02-25T09:18:50.062Z,3.2
2019-02-25T09:20:50.228Z,3.3
2019-02-25T09:22:50.451Z,3.4
2019-02-25T09:24:50.698Z,3.5
2019-02-25T09:26:50.721Z,3.6
2019-02-25T09:28:49.935Z,3.6
2019-02-25T09:30:50.140Z,3.7
2019-02-25T09:32:50.339Z,3.8
2019-02-25T09:34:49.928Z,3.9
2019-02-25T09:36:50.900Z,4.0
2019-02-25T09:38:50.591Z,4.0
2019-02-25T09:40:50.832Z,4.1
2019-02-25T09:42:50.320Z,4.2
2019-02-25T09:44:50.242Z,4.3
2019-02-25T09:46:50.121Z,4.4
2019-02-25T09:48:50.428Z,4.4
2019-02-25T09:50:50.669Z,4.5
2019-02-25T09:52:49.952Z,4.7
2019-02-25T09:54:50.242Z,4.7
2019-02-25T09:56:50.287Z,4.8
2019-02-25T09:58:52.478Z,4.8
2019-02-25T10:00:50.745Z,4.9
2019-02-25T10:02:49.999Z,5.1
2019-02-25T10:04:50.455Z,5.2
2019-02-25T10:06:50.750Z,5.3
2019-02-25T10:08:50.150Z,5.3
2019-02-25T10:10:50.316Z,5.3
2019-02-25T10:12:50.708Z,5.4
2019-02-25T10:14:50.523Z,5.6
2019-02-25T10:16:49.874Z,5.7
2019-02-25T10:18:50.107Z,5.8
2019-02-25T10:20:50.294Z,5.8
2019-02-25T10:22:50.014Z,6.0
2019-02-25T10:24:50.200Z,6.1
2019-02-25T10:26:50.436Z,6.2
2019-02-25T10:28:50.587Z,6.2
2019-02-25T10:30:53.743Z,6.2
2019-02-25T10:32:49.897Z,6.4
2019-02-25T10:34:50.608Z,6.5
2019-02-25T10:36:52.769Z,6.5
2019-02-25T10:38:49.983Z,6.7
2019-02-25T10:40:54.291Z,6.7
2019-02-25T10:42:50.514Z,6.8
2019-02-25T10:44:50.769Z,6.9
2019-02-25T10:46:50.771Z,6.9
2019-02-25T10:49:11.900Z,7.0
2019-02-25T10:50:56.808Z,7.1
2019-02-25T10:52:50.136Z,7.1
2019-02-25T10:54:58.460Z,7.1
2019-02-25T10:56:58.133Z,7.3
2019-02-25T10:58:50.249Z,7.4
2019-02-25T11:00:50.431Z,7.5
2019-02-25T11:02:58.507Z,7.6
2019-02-25T11:04:57.854Z,7.6
2019-02-25T11:06:50.354Z,7.6
2019-02-25T11:08:50.513Z,7.8
2019-02-25T11:10:55.227Z,7.8
2019-02-25T11:12:50.342Z,7.9
2019-02-25T11:14:50.724Z,8.0
2019-02-25T11:16:52.609Z,8.0
2019-02-25T11:19:01.007Z,8.0
2019-02-25T11:20:50.195Z,8.1
2019-02-25T11:22:50.302Z,8.1
2019-02-25T11:24:57.983Z,8.2
2019-02-25T11:26:50.379Z,8.3
2019-02-25T11:28:50.478Z,8.4
2019-02-25T11:30:54.254Z,8.4
2019-02-25T11:33:00.218Z,8.5
2019-02-25T11:34:50.700Z,8.5
2019-02-25T11:36:59.699Z,8.7
2019-02-25T11:38:49.938Z,8.8
2019-02-25T11:40:50.162Z,8.9
2019-02-25T11:42:50.292Z,9.0
2019-02-25T11:45:04.448Z,9.0
2019-02-25T11:46:50.791Z,9.1
2019-02-25T11:48:49.953Z,9.3
2019-02-25T11:50:50.211Z,9.3
2019-02-25T11:52:50.340Z,9.3
2019-02-25T11:54:50.538Z,9.5
2019-02-25T11:56:50.760Z,9.6
2019-02-25T11:58:49.989Z,9.7
2019-02-25T12:00:50.227Z,9.8
2019-02-25T12:02:50.345Z,9.8
2019-02-25T12:04:50.039Z,9.9
2019-02-25T12:06:50.462Z,10.0
2019-02-25T12:08:50.781Z,10.1
2019-02-25T12:10:50.019Z,10.2
2019-02-25T12:12:50.174Z,10.2
2019-02-25T12:14:50.471Z,10.2
2019-02-25T12:16:50.723Z,10.4
2019-02-25T12:18:50.884Z,10.4
2019-02-25T12:20:50.159Z,10.4
2019-02-25T12:22:50.286Z,10.6
2019-02-25T12:24:50.451Z,10.7
2019-02-25T12:26:50.831Z,10.8
2019-02-25T12:28:50.002Z,10.8
2019-02-25T12:30:50.193Z,10.9
2019-02-25T12:32:50.312Z,11.0
2019-02-25T12:34:49.904Z,11.1
2019-02-25T12:36:50.181Z,11.2
2019-02-25T12:38:50.350Z,11.2
2019-02-25T12:40:50.501Z,11.3
2019-02-25T12:42:50.698Z,11.4
2019-02-25T12:44:49.890Z,11.5
2019-02-25T12:46:50.245Z,11.5
2019-02-25T12:48:50.374Z,11.5
2019-02-25T12:50:50.521Z,11.7
2019-02-25T12:52:50.768Z,11.8
2019-02-25T12:54:49.874Z,11.9
2019-02-25T12:56:50.294Z,12.0
2019-02-25T12:58:50.459Z,12.0
2019-02-25T13:00:50.540Z,12.1
2019-02-25T13:02:50.687Z,12.2
2019-02-25T13:04:50.494Z,12.2
2019-02-25T13:06:50.859Z,12.4
2019-02-25T13:08:49.984Z,12.4
2019-02-25T13:10:50.199Z,12.4
2019-02-25T13:12:52.441Z,12.5
2019-02-25T13:14:50.593Z,12.6
2019-02-25T13:16:49.969Z,12.6
2019-02-25T13:18:50.296Z,12.7
2019-02-25T13:20:50.515Z,12.7
2019-02-25T13:22:50.749Z,12.8
2019-02-25T13:24:49.996Z,12.8
2019-02-25T13:26:50.403Z,12.9
2019-02-25T13:28:51.921Z,12.9
2019-02-25T13:30:50.478Z,12.9
2019-02-25T13:32:50.828Z,13.0
2019-02-25T13:34:50.744Z,13.0
2019-02-25T13:36:50.130Z,13.0
2019-02-25T13:38:50.539Z,13.0
2019-02-25T13:40:50.947Z,13.1
2019-02-25T13:42:50.366Z,13.1
2019-02-25T13:44:50.655Z,13.2
2019-02-25T13:46:50.087Z,13.2
2019-02-25T13:48:50.459Z,13.3
2019-02-25T13:50:51.589Z,13.3
2019-02-25T13:52:50.405Z,13.4
2019-02-25T13:54:49.972Z,13.4
2019-02-25T13:56:50.433Z,13.4
2019-02-25T13:58:50.857Z,13.5
2019-02-25T14:00:50.304Z,13.6
2019-02-25T14:02:50.635Z,13.7
2019-02-25T14:04:51.860Z,13.7
2019-02-25T14:06:50.526Z,13.7
2019-02-25T14:08:50.495Z,13.8
2019-02-25T14:10:50.740Z,13.8
2019-02-25T14:12:51.474Z,13.9
2019-02-25T14:14:50.357Z,13.9
2019-02-25T14:16:50.796Z,13.9
2019-02-25T14:18:50.150Z,13.9
2019-02-25T14:20:51.418Z,14.0
2019-02-25T14:22:50.226Z,14.0
2019-02-25T14:24:50.504Z,14.1
2019-02-25T14:26:49.947Z,14.2
2019-02-25T14:28:50.241Z,14.1
2019-02-25T14:30:52.207Z,14.2
2019-02-25T14:32:54.200Z,14.2
2019-02-25T14:34:50.752Z,14.2
2019-02-25T14:37:04.328Z,14.2
2019-02-25T14:39:03.963Z,14.2
2019-02-25T14:40:57.200Z,14.2
2019-02-25T14:43:05.931Z,14.2
2019-02-25T14:45:06.549Z,14.2
2019-02-25T14:46:50.617Z,14.2
2019-02-25T14:48:50.920Z,14.2
2019-02-25T14:50:50.202Z,14.2
2019-02-25T14:52:50.573Z,14.2
2019-02-25T14:54:51.048Z,14.2
2019-02-25T14:56:57.397Z,14.2
2019-02-25T14:58:50.718Z,14.1
2019-02-25T15:00:50.112Z,14.2
2019-02-25T15:02:50.999Z,14.2
2019-02-25T15:04:50.568Z,14.2
2019-02-25T15:06:50.001Z,14.2
2019-02-25T15:08:50.381Z,14.2
2019-02-25T15:10:50.738Z,14.2
2019-02-25T15:13:06.608Z,14.2
2019-02-25T15:14:50.371Z,14.2
2019-02-25T15:16:50.662Z,14.2
2019-02-25T15:18:49.970Z,14.2
2019-02-25T15:20:50.223Z,14.2
2019-02-25T15:22:50.506Z,14.3
2019-02-25T15:24:59.953Z,14.2
2019-02-25T15:26:50.654Z,14.3
2019-02-25T15:29:04.512Z,14.3
2019-02-25T15:30:50.091Z,14.2
2019-02-25T15:33:00.851Z,14.2
2019-02-25T15:34:57.512Z,14.2
2019-02-25T15:36:50.085Z,14.2
2019-02-25T15:38:50.543Z,14.2
2019-02-25T15:40:50.788Z,14.1
2019-02-25T15:42:50.725Z,14.1
2019-02-25T15:44:57.748Z,14.1
2019-02-25T15:46:50.231Z,14.0
2019-02-25T15:48:50.512Z,14.0
2019-02-25T15:51:00.899Z,14.0
2019-02-25T15:52:51.552Z,13.90
2019-02-25T15:54:50.786Z,13.8
2019-02-25T15:56:50.259Z,13.63
2019-02-25T15:58:50.641Z,13.37
2019-02-25T16:00:50.003Z,13.31
2019-02-25T16:02:50.350Z,13.24
2019-02-25T16:04:49.946Z,13.14
2019-02-25T16:07:08.149Z,12.96
2019-02-25T16:09:02.572Z,12.80
2019-02-25T16:11:00.331Z,12.55
2019-02-25T16:13:09.399Z,12.36
2019-02-25T16:14:53.583Z,12.15
2019-02-25T16:16:50.181Z,12.02
2019-02-25T16:18:50.415Z,11.90
2019-02-25T16:20:50.665Z,11.77
2019-02-25T16:22:50.013Z,11.55
2019-02-25T16:24:50.286Z,11.39
2019-02-25T16:26:50.715Z,11.17
2019-02-25T16:29:07.315Z,11.07
2019-02-25T16:30:51.892Z,10.82
2019-02-25T16:32:50.066Z,10.64
2019-02-25T16:34:50.846Z,10.51
2019-02-25T16:37:04.386Z,10.43
2019-02-25T16:39:09.611Z,10.20
2019-02-25T16:41:03.758Z,10.09
2019-02-25T16:42:49.998Z,10.01
2019-02-25T16:44:51.387Z,9.84
2019-02-25T16:46:51.458Z,9.71
2019-02-25T16:48:57.710Z,9.61
2019-02-25T16:50:50.210Z,9.42
2019-02-25T16:52:51.810Z,9.28
2019-02-25T16:54:50.877Z,9.11
2019-02-25T16:56:50.515Z,8.99
2019-02-25T16:58:59.210Z,8.77
2019-02-25T17:00:51.869Z,8.59
2019-02-25T17:02:50.532Z,8.59
2019-02-25T17:04:50.517Z,8.29
2019-02-25T17:07:00.278Z,8.22
2019-02-25T17:08:57.991Z,8.05
2019-02-25T17:11:00.189Z,7.90
2019-02-25T17:12:54.725Z,7.71
2019-02-25T17:14:50.183Z,7.56
2019-02-25T17:16:51.583Z,7.43
2019-02-25T17:18:50.344Z,7.33
2019-02-25T17:20:51.018Z,7.22
2019-02-25T17:22:50.157Z,7.10
2019-02-25T17:24:59.910Z,6.97
2019-02-25T17:26:50.361Z,6.87
2019-02-25T17:28:50.417Z,6.74
2019-02-25T17:30:52.897Z,6.68
2019-02-25T17:32:51.114Z,6.57
2019-02-25T17:34:50.256Z,6.47
2019-02-25T17:36:55.101Z,6.47
2019-02-25T17:38:52.582Z,6.26
2019-02-25T17:40:50.879Z,6.22
2019-02-25T17:42:56.766Z,6.18
2019-02-25T17:45:05.575Z,6.07
2019-02-25T17:46:50.567Z,6.00
2019-02-25T17:48:50.875Z,5.92
2019-02-25T17:50:50.232Z,5.88
2019-02-25T17:52:50.533Z,5.77
2019-02-25T17:54:51.793Z,5.68
2019-02-25T17:56:52.392Z,5.62
2019-02-25T17:58:50.677Z,5.54
2019-02-25T18:00:49.974Z,5.46
2019-02-25T18:02:50.347Z,5.38
2019-02-25T18:04:58.319Z,5.34
2019-02-25T18:06:49.802Z,5.25
2019-02-25T18:09:01.631Z,5.19
2019-02-25T18:10:55.506Z,5.10
2019-02-25T18:12:50.238Z,5.03
2019-02-25T18:14:50.525Z,4.99
2019-02-25T18:16:52.743Z,4.91
2019-02-25T18:18:57.432Z,4.84
2019-02-25T18:20:53.921Z,4.78
2019-02-25T18:22:51.866Z,4.68
2019-02-25T18:24:50.253Z,4.62
2019-02-25T18:26:50.809Z,4.57
2019-02-25T18:28:53.336Z,4.54
2019-02-25T18:30:50.546Z,4.48
2019-02-25T18:32:59.842Z,4.47
2019-02-25T18:34:56.262Z,4.37
2019-02-25T18:36:55.665Z,4.29
2019-02-25T18:38:54.968Z,4.18
2019-02-25T18:40:50.563Z,4.06
2019-02-25T18:42:49.755Z,3.99
2019-02-25T18:44:53.795Z,3.93
2019-02-25T18:46:52.626Z,3.90
2019-02-25T18:48:51.660Z,3.85
2019-02-25T18:51:00.804Z,3.82
2019-02-25T18:52:56.781Z,3.78
2019-02-25T18:54:50.145Z,3.71
2019-02-25T18:56:50.974Z,3.66
2019-02-25T18:58:50.529Z,3.58
2019-02-25T19:00:51.811Z,3.54
2019-02-25T19:02:49.935Z,3.48
2019-02-25T19:04:51.522Z,3.42
2019-02-25T19:06:50.334Z,3.34
2019-02-25T19:08:58.572Z,3.32
2019-02-25T19:10:57.555Z,3.26
2019-02-25T19:13:01.202Z,3.23
2019-02-25T19:15:05.314Z,3.17
2019-02-25T19:16:50.381Z,3.10
2019-02-25T19:18:50.563Z,3.08
2019-02-25T19:20:51.359Z,3.02
2019-02-25T19:22:50.187Z,2.98
2019-02-25T19:24:51.380Z,2.96
2019-02-25T19:26:52.094Z,2.95
2019-02-25T19:28:59.363Z,2.93
2019-02-25T19:30:51.897Z,2.89
2019-02-25T19:32:50.217Z,2.82
2019-02-25T19:35:09.642Z,2.76
2019-02-25T19:36:50.578Z,2.71
2019-02-25T19:38:50.935Z,2.69
2019-02-25T19:40:57.972Z,2.62
2019-02-25T19:43:05.619Z,2.55
2019-02-25T19:44:50.473Z,2.50
2019-02-25T19:46:56.244Z,2.45
2019-02-25T19:48:56.844Z,2.44
2019-02-25T19:51:03.600Z,2.46
2019-02-25T19:52:50.640Z,2.43
2019-02-25T19:54:51.327Z,2.39
2019-02-25T19:56:58.267Z,2.30
2019-02-25T19:58:50.584Z,2.26
2019-02-25T20:01:08.438Z,2.24
2019-02-25T20:02:49.935Z,2.20
2019-02-25T20:04:52.532Z,2.20
2019-02-25T20:07:00.976Z,2.10
2019-02-25T20:09:00.517Z,2.03
2019-02-25T20:10:55.172Z,1.99
2019-02-25T20:12:53.724Z,1.94
2019-02-25T20:14:50.030Z,1.89
2019-02-25T20:16:50.431Z,1.87
2019-02-25T20:18:50.704Z,1.86
2019-02-25T20:20:50.091Z,1.84
2019-02-25T20:22:51.332Z,1.80
2019-02-25T20:24:58.138Z,1.78
2019-02-25T20:27:06.443Z,1.76
2019-02-25T20:28:51.123Z,1.74
2019-02-25T20:30:54.221Z,1.74
2019-02-25T20:32:50.476Z,1.73
2019-02-25T20:35:01.306Z,1.66
2019-02-25T20:37:03.909Z,1.62
2019-02-25T20:38:50.364Z,1.60
2019-02-25T20:41:02.268Z,1.58
2019-02-25T20:43:03.221Z,1.56
2019-02-25T20:45:04.498Z,1.53
2019-02-25T20:47:03.683Z,1.51
2019-02-25T20:49:00.090Z,1.51
2019-02-25T20:50:50.292Z,1.49
2019-02-25T20:52:50.584Z,1.44
2019-02-25T20:54:50.769Z,1.42
2019-02-25T20:56:55.744Z,1.36
2019-02-25T20:58:50.073Z,1.32
2019-02-25T21:00:51.406Z,1.23
2019-02-25T21:02:50.591Z,1.15
2019-02-25T21:04:52.710Z,1.12
2019-02-25T21:06:50.171Z,1.05
2019-02-25T21:08:50.291Z,1.00
2019-02-25T21:10:50.443Z,0.97
2019-02-25T21:13:02.273Z,0.96
2019-02-25T21:14:50.623Z,0.92
2019-02-25T21:17:02.663Z,0.86
2019-02-25T21:18:55.339Z,0.85
2019-02-25T21:20:54.125Z,0.79
2019-02-25T21:23:08.544Z,0.79
2019-02-25T21:25:04.851Z,0.79
2019-02-25T21:26:50.281Z,0.75
2019-02-25T21:28:56.335Z,0.75
2019-02-25T21:30:53.263Z,0.81
2019-02-25T21:32:59.100Z,0.80
2019-02-25T21:35:04.333Z,0.78
2019-02-25T21:36:49.845Z,0.69
2019-02-25T21:38:56.296Z,0.62
2019-02-25T21:40:55.191Z,0.55
2019-02-25T21:42:57.201Z,0.54
2019-02-25T21:45:02.477Z,0.48
2019-02-25T21:47:05.834Z,0.45
2019-02-25T21:49:06.078Z,0.43
2019-02-25T21:50:50.248Z,0.41
2019-02-25T21:52:50.432Z,0.41
2019-02-25T21:54:50.627Z,0.36
2019-02-25T21:56:50.007Z,0.33
2019-02-25T21:58:53.562Z,0.27
2019-02-25T22:00:50.736Z,0.27
2019-02-25T22:02:53.114Z,0.28
2019-02-25T22:04:54.439Z,0.23
2019-02-25T22:07:02.586Z,0.21
2019-02-25T22:09:04.905Z,0.18
2019-02-25T22:10:49.947Z,0.16
2019-02-25T22:12:50.185Z,0.14
2019-02-25T22:14:52.625Z,0.07
2019-02-25T22:17:01.034Z,0.03
2019-02-25T22:18:58.956Z,0.02
